Terminal Aerodrome Forecast
Issued by NWS

Home | Current Version | Previous Version | Text Only | Print | Product List | Glossary On
Versions: 1 2 3 4 5 6 7 8 9 10 11 12 13 14
000
FTUS45 KABQ 060537
TAFTCC
TAF
KTCC 060537Z 0606/0706 24008KT P6SM SCT070 BKN100
     FM060900 32007KT P6SM BKN100 BKN150
     FM061300 03012G18KT P6SM SCT080 SCT150
     FM061800 07010KT P6SM BKN060 BKN090
     FM062200 03015G22KT P6SM VCTS BKN040CB OVC070
     FM070400 05015KT 5SM BR VCSH OVC025=

USA.gov is the U.S. government's official web portal to all federal, state and local government web resources and services.